Time;durP1;ratioP1;P1;durP2;ratioP2;P2;SDS_P1;SDS_P2;PMS_P1;PMS_P2;Temp;Humidity;BMP_temperature;BMP_pressure;BME280_temperature;BME280_humidity;BME280_pressure;Samples;Min_cycle;Max_cycle;Signal;HPM_P1;HPM_P2
2021/09/06 00:00:48;;;;;;;6.75;4.90;;;16.00;79.50;;;;;;5031817;28;20029;-68
2021/09/06 00:03:13;;;;;;;8.05;4.80;;;16.00;79.60;;;;;;5050798;28;20059;-68
2021/09/06 00:05:39;;;;;;;6.20;4.80;;;16.00;79.70;;;;;;5031006;28;20025;-68
2021/09/06 00:08:05;;;;;;;5.88;4.43;;;15.90;79.50;;;;;;5030871;28;20029;-68
2021/09/06 00:10:37;;;;;;;7.15;5.20;;;15.90;79.60;;;;;;5049442;28;20503;-68
2021/09/06 00:13:05;;;;;;;7.25;4.53;;;15.90;80.50;;;;;;5050189;28;20125;-68
2021/09/06 00:15:31;;;;;;;7.13;4.78;;;15.90;79.80;;;;;;5048818;28;20159;-68
2021/09/06 00:17:57;;;;;;;7.57;4.82;;;15.80;79.80;;;;;;5051026;28;20041;-68
2021/09/06 00:20:23;;;;;;;5.85;4.43;;;15.80;80.00;;;;;;5050516;28;20024;-68
2021/09/06 00:25:17;;;;;;;6.32;4.65;;;15.70;80.30;;;;;;5046185;28;20124;-65
2021/09/06 00:27:42;;;;;;;8.15;5.53;;;15.70;80.30;;;;;;5048956;28;20029;-64
2021/09/06 00:30:08;;;;;;;5.90;4.68;;;15.70;80.30;;;;;;5048696;28;20032;-66
2021/09/06 00:32:34;;;;;;;8.65;5.03;;;15.60;80.40;;;;;;5048498;28;20031;-65
2021/09/06 00:35:00;;;;;;;5.95;4.75;;;15.60;80.50;;;;;;5047932;28;20103;-68
2021/09/06 00:37:25;;;;;;;8.55;5.03;;;15.50;80.60;;;;;;5048936;28;20032;-65
2021/09/06 00:39:51;;;;;;;6.60;4.93;;;15.40;80.70;;;;;;5046736;28;20063;-66
2021/09/06 00:42:16;;;;;;;6.35;5.00;;;15.30;80.80;;;;;;5047559;28;20030;-66
2021/09/06 00:44:42;;;;;;;9.07;5.03;;;15.30;81.10;;;;;;5047984;28;20036;-68
2021/09/06 00:47:08;;;;;;;7.28;4.95;;;15.30;81.30;;;;;;5048731;28;20048;-64
2021/09/06 00:49:33;;;;;;;7.25;4.88;;;15.20;81.30;;;;;;5048348;28;20104;-65
2021/09/06 00:51:59;;;;;;;6.90;4.65;;;15.20;81.50;;;;;;5049187;28;20087;-65
2021/09/06 00:54:25;;;;;;;6.35;4.97;;;15.20;81.50;;;;;;5047572;28;20075;-69
2021/09/06 00:56:52;;;;;;;5.57;4.70;;;15.20;81.70;;;;;;5048100;28;20025;-66
2021/09/06 00:59:18;;;;;;;8.38;4.57;;;15.20;81.70;;;;;;5051546;28;20055;-66
2021/09/06 01:01:43;;;;;;;6.50;4.93;;;15.20;81.60;;;;;;5052143;28;20447;-65
2021/09/06 01:04:09;;;;;;;6.90;4.75;;;15.20;81.60;;;;;;5046049;28;20032;-65
2021/09/06 01:06:35;;;;;;;6.60;4.70;;;15.10;81.40;;;;;;5050769;28;20480;-67
2021/09/06 01:09:00;;;;;;;5.07;4.32;;;15.10;81.50;;;;;;5051661;28;20393;-64
2021/09/06 01:11:26;;;;;;;5.50;3.97;;;15.10;81.60;;;;;;5051942;28;20784;-65
2021/09/06 01:13:51;;;;;;;8.23;4.45;;;15.10;81.60;;;;;;5050303;28;20032;-65
2021/09/06 01:16:18;;;;;;;6.07;5.25;;;15.00;81.60;;;;;;5051226;28;20025;-65
2021/09/06 01:18:44;;;;;;;5.68;4.53;;;15.00;81.70;;;;;;5051689;28;20473;-65
2021/09/06 01:21:09;;;;;;;7.45;4.88;;;14.90;81.70;;;;;;5051656;28;20037;-64
2021/09/06 01:23:35;;;;;;;6.85;4.95;;;14.90;81.90;;;;;;5053146;28;20047;-67
2021/09/06 01:26:01;;;;;;;6.97;5.07;;;14.90;81.90;;;;;;5051260;28;20029;-64
2021/09/06 01:28:26;;;;;;;5.68;4.60;;;14.90;81.80;;;;;;5051452;28;20025;-65
2021/09/06 01:30:52;;;;;;;7.35;4.90;;;14.90;82.00;;;;;;5051760;28;20057;-66
2021/09/06 01:33:17;;;;;;;7.07;4.63;;;14.90;82.00;;;;;;5051777;28;20108;-65
2021/09/06 01:35:43;;;;;;;9.43;5.40;;;14.80;81.90;;;;;;5050382;28;20040;-68
2021/09/06 01:38:09;;;;;;;5.65;4.55;;;14.80;82.00;;;;;;5051998;28;20124;-64
2021/09/06 01:40:34;;;;;;;6.25;4.90;;;14.80;82.00;;;;;;5046773;28;20120;-65
2021/09/06 01:43:00;;;;;;;5.20;4.15;;;14.70;82.20;;;;;;5050850;28;20031;-66
2021/09/06 01:45:26;;;;;;;6.05;4.55;;;14.60;82.30;;;;;;5050893;28;20025;-67
2021/09/06 01:47:51;;;;;;;6.35;4.88;;;14.60;82.60;;;;;;5051081;28;20099;-64
2021/09/06 01:50:17;;;;;;;5.18;4.22;;;14.60;82.70;;;;;;5051351;28;20029;-64
2021/09/06 01:52:42;;;;;;;5.65;4.50;;;14.50;82.70;;;;;;5051679;28;20125;-66
2021/09/06 01:55:08;;;;;;;6.53;4.45;;;14.50;82.70;;;;;;5050039;28;20036;-68
2021/09/06 01:57:34;;;;;;;5.65;4.63;;;14.50;82.70;;;;;;5051271;28;20031;-69
2021/09/06 01:59:59;;;;;;;7.15;4.70;;;14.50;82.80;;;;;;5032829;28;20024;-64
2021/09/06 02:02:25;;;;;;;7.43;4.75;;;14.40;82.90;;;;;;5051539;28;20033;-66
2021/09/06 02:04:50;;;;;;;8.55;5.63;;;14.40;83.00;;;;;;5050524;28;20029;-66
2021/09/06 02:07:16;;;;;;;5.63;3.80;;;14.40;83.10;;;;;;5051004;28;20381;-68
2021/09/06 02:09:42;;;;;;;6.50;4.60;;;14.30;83.00;;;;;;5050022;28;20108;-65
2021/09/06 02:12:08;;;;;;;5.45;4.18;;;14.30;83.00;;;;;;5050913;28;20029;-65
2021/09/06 02:14:34;;;;;;;5.72;4.55;;;14.30;83.00;;;;;;5050693;28;20033;-66
2021/09/06 02:17:00;;;;;;;8.77;4.70;;;14.30;83.00;;;;;;5050897;28;20445;-66
2021/09/06 02:19:25;;;;;;;8.60;4.97;;;14.30;83.00;;;;;;5051534;28;20036;-65
2021/09/06 02:21:51;;;;;;;5.40;4.13;;;14.30;83.00;;;;;;5050062;28;20033;-67
2021/09/06 02:24:17;;;;;;;7.65;4.45;;;14.30;83.00;;;;;;5051034;28;20040;-68
2021/09/06 02:26:43;;;;;;;8.05;5.13;;;14.30;82.90;;;;;;5049821;28;20048;-67
2021/09/06 02:29:10;;;;;;;5.82;4.65;;;14.20;83.40;;;;;;5050565;28;20110;-66
2021/09/06 02:31:35;;;;;;;5.82;4.63;;;14.10;83.00;;;;;;5050522;28;20738;-66
2021/09/06 02:34:01;;;;;;;5.30;4.15;;;14.00;83.10;;;;;;5051297;28;20068;-67
2021/09/06 02:36:27;;;;;;;5.72;4.78;;;14.00;83.20;;;;;;5049132;28;20100;-65
2021/09/06 02:38:52;;;;;;;5.97;4.60;;;13.90;83.30;;;;;;5050838;28;20745;-66
2021/09/06 02:41:18;;;;;;;6.65;4.65;;;13.90;83.40;;;;;;5049949;28;20186;-68
2021/09/06 02:43:44;;;;;;;6.10;4.55;;;13.80;83.40;;;;;;5050486;28;20029;-66
2021/09/06 02:46:09;;;;;;;8.00;4.72;;;13.80;83.60;;;;;;5049684;28;20021;-67
2021/09/06 02:48:35;;;;;;;5.60;4.38;;;13.70;83.60;;;;;;5032160;28;20469;-66
2021/09/06 02:51:00;;;;;;;5.85;4.68;;;13.70;83.70;;;;;;5050310;28;20025;-66
2021/09/06 02:53:26;;;;;;;6.05;4.57;;;13.70;83.70;;;;;;5055585;28;20469;-66
2021/09/06 02:55:51;;;;;;;6.45;4.53;;;13.70;83.60;;;;;;5049195;28;20536;-67
2021/09/06 02:58:17;;;;;;;6.60;4.65;;;13.80;83.60;;;;;;5050461;28;20397;-64
2021/09/06 03:00:43;;;;;;;5.43;4.40;;;13.80;83.50;;;;;;5050253;28;20104;-65
2021/09/06 03:03:08;;;;;;;7.65;5.00;;;13.70;83.50;;;;;;5050429;28;20025;-66
2021/09/06 03:05:34;;;;;;;5.68;4.47;;;13.70;83.40;;;;;;5048808;28;20123;-66
2021/09/06 03:07:59;;;;;;;6.72;4.70;;;13.70;83.60;;;;;;5049574;28;20024;-64
2021/09/06 03:10:25;;;;;;;5.97;4.72;;;13.70;83.70;;;;;;5049884;28;20105;-66
2021/09/06 03:12:51;;;;;;;6.45;5.10;;;13.60;83.60;;;;;;5050224;28;20447;-65
2021/09/06 03:15:16;;;;;;;6.00;4.80;;;13.60;83.70;;;;;;5046835;28;20392;-64
2021/09/06 03:17:42;;;;;;;5.40;4.45;;;13.50;83.90;;;;;;5050634;28;20037;-68
2021/09/06 03:20:08;;;;;;;5.28;4.53;;;13.50;84.00;;;;;;5049700;28;20488;-65
2021/09/06 03:22:33;;;;;;;6.80;4.68;;;13.50;84.00;;;;;;5049284;28;20025;-65
2021/09/06 03:24:59;;;;;;;5.55;4.70;;;13.50;84.00;;;;;;5048631;28;20346;-66
2021/09/06 03:27:25;;;;;;;5.80;4.80;;;13.50;84.00;;;;;;5049412;28;20111;-65
2021/09/06 03:29:51;;;;;;;6.82;4.75;;;13.50;83.90;;;;;;5049648;28;20792;-68
2021/09/06 03:32:16;;;;;;;5.40;4.25;;;13.50;83.90;;;;;;5050078;28;20090;-65
2021/09/06 03:34:42;;;;;;;6.53;4.80;;;13.40;84.00;;;;;;5048846;28;20021;-66
2021/09/06 03:37:07;;;;;;;7.65;5.05;;;13.40;84.00;;;;;;5048990;28;20365;-65
2021/09/06 03:39:33;;;;;;;6.47;4.68;;;13.40;83.90;;;;;;5049438;28;20017;-65
2021/09/06 03:41:59;;;;;;;6.40;4.65;;;13.30;83.90;;;;;;5045670;28;20104;-67
2021/09/06 03:44:24;;;;;;;6.05;4.93;;;13.30;84.00;;;;;;5047964;28;20028;-65
2021/09/06 03:46:51;;;;;;;6.22;4.68;;;13.30;84.20;;;;;;5048649;28;20017;-65
2021/09/06 03:49:17;;;;;;;5.25;4.45;;;13.20;84.30;;;;;;5044269;28;20032;-68
2021/09/06 03:51:43;;;;;;;8.43;4.80;;;13.20;84.30;;;;;;5049434;28;20013;-68
2021/09/06 03:54:08;;;;;;;6.22;4.57;;;13.10;84.50;;;;;;5048705;28;20497;-66
2021/09/06 03:56:34;;;;;;;7.22;4.72;;;13.10;84.60;;;;;;5048521;28;20029;-66
2021/09/06 03:58:59;;;;;;;8.68;4.75;;;13.10;84.50;;;;;;5048072;28;20025;-66
2021/09/06 04:01:25;;;;;;;6.47;4.60;;;13.10;84.50;;;;;;5031191;28;20436;-69
2021/09/06 04:03:51;;;;;;;5.18;4.68;;;13.10;84.60;;;;;;5049613;28;20032;-65
2021/09/06 04:06:17;;;;;;;5.97;4.78;;;13.10;84.60;;;;;;5047948;28;20521;-66
2021/09/06 04:08:42;;;;;;;7.13;4.72;;;13.00;84.70;;;;;;5049102;28;20029;-67
2021/09/06 04:11:08;;;;;;;6.13;4.82;;;13.00;84.80;;;;;;5049515;28;20025;-65
2021/09/06 04:13:34;;;;;;;7.22;4.63;;;13.00;84.90;;;;;;5049554;28;20100;-66
2021/09/06 04:15:59;;;;;;;6.70;4.45;;;12.90;85.00;;;;;;5048689;28;20025;-65
2021/09/06 04:18:26;;;;;;;7.03;5.07;;;12.90;85.10;;;;;;5049425;28;20029;-66
2021/09/06 04:20:52;;;;;;;7.38;4.93;;;12.90;85.10;;;;;;5048795;28;20113;-67
2021/09/06 04:23:18;;;;;;;6.32;4.68;;;13.00;85.20;;;;;;5054711;28;20381;-65
2021/09/06 04:25:44;;;;;;;8.05;5.55;;;13.00;85.20;;;;;;5048817;28;20039;-70
2021/09/06 04:28:10;;;;;;;5.95;4.90;;;12.90;85.10;;;;;;5030861;28;20090;-65
2021/09/06 04:30:35;;;;;;;6.85;4.97;;;12.90;85.20;;;;;;5048866;28;20660;-64
2021/09/06 04:33:01;;;;;;;8.35;4.97;;;12.90;85.30;;;;;;5051037;28;20112;-66
2021/09/06 04:35:26;;;;;;;8.75;4.82;;;12.80;85.20;;;;;;5052246;28;20025;-65
2021/09/06 04:37:52;;;;;;;7.28;4.25;;;12.80;85.40;;;;;;5053473;28;20025;-68
2021/09/06 04:40:18;;;;;;;7.13;5.03;;;12.80;85.50;;;;;;5052194;28;20024;-65
2021/09/06 04:42:43;;;;;;;5.05;4.35;;;12.80;85.50;;;;;;5053012;28;20104;-64
2021/09/06 04:45:09;;;;;;;7.63;4.90;;;12.80;85.40;;;;;;5051453;28;20029;-64
2021/09/06 04:47:35;;;;;;;6.38;4.78;;;12.80;85.40;;;;;;5052467;28;20525;-64
2021/09/06 04:50:01;;;;;;;8.93;5.60;;;12.80;85.30;;;;;;5052707;28;20025;-67
2021/09/06 04:52:26;;;;;;;6.78;4.47;;;12.80;85.30;;;;;;5052790;28;20512;-64
2021/09/06 04:54:52;;;;;;;7.10;4.93;;;12.70;85.30;;;;;;5051479;28;20048;-65
2021/09/06 04:57:19;;;;;;;5.65;4.40;;;12.60;85.30;;;;;;5052619;28;20069;-68
2021/09/06 04:59:44;;;;;;;6.72;4.85;;;12.60;85.70;;;;;;5052398;28;20473;-65
2021/09/06 05:02:10;;;;;;;5.47;4.57;;;12.60;85.70;;;;;;5051827;28;20025;-65
2021/09/06 05:04:35;;;;;;;5.03;4.40;;;12.60;85.90;;;;;;5051024;28;20414;-66
2021/09/06 05:07:01;;;;;;;8.68;5.10;;;12.60;85.90;;;;;;5051616;28;20033;-68
2021/09/06 05:09:26;;;;;;;6.32;4.88;;;12.50;85.90;;;;;;5051209;28;20087;-65
2021/09/06 05:11:52;;;;;;;8.18;4.70;;;12.50;86.00;;;;;;5051413;28;20092;-67
2021/09/06 05:14:18;;;;;;;6.68;4.97;;;12.50;86.00;;;;;;5049075;28;20021;-67
2021/09/06 05:16:43;;;;;;;10.32;4.75;;;12.60;86.10;;;;;;5050416;28;20106;-70
2021/09/06 05:19:09;;;;;;;6.47;4.97;;;12.60;86.20;;;;;;5051043;28;20028;-66
2021/09/06 05:21:34;;;;;;;7.28;4.65;;;12.60;86.20;;;;;;5051152;28;20108;-67
2021/09/06 05:24:00;;;;;;;5.85;4.75;;;12.50;86.20;;;;;;5053037;28;20068;-67
2021/09/06 05:26:26;;;;;;;7.38;4.80;;;12.50;86.30;;;;;;5048109;28;20036;-66
2021/09/06 05:28:52;;;;;;;8.55;5.22;;;12.60;86.40;;;;;;5050692;28;20082;-67
2021/09/06 05:31:18;;;;;;;6.78;4.88;;;12.60;86.50;;;;;;5047960;28;20027;-67
2021/09/06 05:33:44;;;;;;;7.13;5.10;;;12.60;86.50;;;;;;5048733;28;20029;-69
2021/09/06 05:36:13;;;;;;;6.70;4.85;;;12.60;86.50;;;;;;5030657;28;20028;-64
2021/09/06 05:38:39;;;;;;;7.35;5.22;;;12.60;86.60;;;;;;5050885;28;20057;-66
2021/09/06 05:41:05;;;;;;;7.63;5.07;;;12.70;86.60;;;;;;5051252;28;20466;-65
2021/09/06 05:43:31;;;;;;;7.97;4.85;;;12.60;86.60;;;;;;5050304;28;20033;-65
2021/09/06 05:45:56;;;;;;;6.95;5.32;;;12.60;86.70;;;;;;5048013;28;20025;-69
2021/09/06 05:48:22;;;;;;;8.35;5.10;;;12.70;86.80;;;;;;5051656;28;20024;-69
2021/09/06 05:50:47;;;;;;;10.20;5.60;;;12.70;86.80;;;;;;5034159;28;20163;-66
2021/09/06 05:53:15;;;;;;;8.43;4.72;;;12.70;86.70;;;;;;5048348;28;20025;-66
2021/09/06 05:55:41;;;;;;;9.23;5.63;;;12.70;86.70;;;;;;5033067;28;20464;-67
2021/09/06 05:58:07;;;;;;;12.60;5.47;;;12.80;86.90;;;;;;5051514;28;20033;-67
2021/09/06 06:00:34;;;;;;;8.32;5.43;;;12.80;87.10;;;;;;5051225;28;20393;-68
2021/09/06 06:03:00;;;;;;;9.90;5.40;;;12.80;87.10;;;;;;5050863;28;20104;-69
2021/09/06 06:05:25;;;;;;;9.13;5.47;;;12.80;87.10;;;;;;5049265;28;20044;-66
2021/09/06 06:07:51;;;;;;;7.80;5.20;;;12.90;87.30;;;;;;5051411;28;20032;-67
2021/09/06 06:10:16;;;;;;;7.18;5.38;;;12.90;87.40;;;;;;5051370;28;20053;-65
2021/09/06 06:12:42;;;;;;;7.05;5.32;;;13.00;87.50;;;;;;5052055;28;20033;-68
2021/09/06 06:15:08;;;;;;;9.23;5.57;;;13.00;87.20;;;;;;5050243;28;20083;-76
2021/09/06 06:17:34;;;;;;;9.45;5.30;;;13.00;87.40;;;;;;5051813;28;20027;-76
2021/09/06 06:19:59;;;;;;;7.22;4.72;;;13.00;87.40;;;;;;5051255;28;20096;-76
2021/09/06 06:22:25;;;;;;;10.10;6.68;;;13.00;87.90;;;;;;5051376;28;20469;-76
2021/09/06 06:24:50;;;;;;;6.47;5.32;;;13.10;87.50;;;;;;5134916;22;20057;-74
2021/09/06 06:27:16;;;;;;;9.48;6.10;;;13.10;87.50;;;;;;5050316;28;20112;-74
2021/09/06 06:29:41;;;;;;;8.68;5.50;;;13.20;87.50;;;;;;5054627;28;20464;-74
2021/09/06 06:32:07;;;;;;;9.25;6.00;;;13.20;87.80;;;;;;5067251;28;20021;-68
2021/09/06 06:34:33;;;;;;;6.90;5.50;;;13.20;87.90;;;;;;5062597;28;20025;-67
2021/09/06 06:36:59;;;;;;;8.65;5.63;;;13.30;88.10;;;;;;5065401;28;20050;-68
2021/09/06 06:39:24;;;;;;;8.10;5.95;;;13.30;88.10;;;;;;5060466;28;20029;-68
2021/09/06 06:41:50;;;;;;;8.63;5.90;;;13.40;88.00;;;;;;5064170;28;20032;-67
2021/09/06 06:44:16;;;;;;;9.55;5.85;;;13.40;88.00;;;;;;5070423;28;20039;-67
2021/09/06 06:46:41;;;;;;;9.32;5.82;;;13.50;88.20;;;;;;5067521;28;20032;-67
2021/09/06 06:49:07;;;;;;;9.18;5.47;;;13.50;88.40;;;;;;5067908;28;20037;-67
2021/09/06 06:51:34;;;;;;;8.30;5.90;;;13.60;88.60;;;;;;5060970;28;20060;-68
2021/09/06 06:54:00;;;;;;;9.57;6.80;;;13.70;88.60;;;;;;5071656;28;20027;-66
2021/09/06 06:56:25;;;;;;;10.63;6.75;;;13.70;88.70;;;;;;5064935;28;20036;-68
2021/09/06 06:58:51;;;;;;;11.48;8.00;;;13.80;88.70;;;;;;5069133;28;20035;-68
2021/09/06 07:01:17;;;;;;;13.55;7.97;;;13.90;88.70;;;;;;5071044;28;20029;-67
2021/09/06 07:03:42;;;;;;;10.65;7.82;;;14.00;88.70;;;;;;5068575;28;20021;-67
2021/09/06 07:06:08;;;;;;;10.57;7.35;;;14.00;88.70;;;;;;5070145;28;20031;-67
2021/09/06 07:08:34;;;;;;;14.93;7.90;;;14.10;88.60;;;;;;5070011;28;20556;-67
2021/09/06 07:10:59;;;;;;;11.70;8.50;;;14.20;88.70;;;;;;5052265;28;20032;-70
2021/09/06 07:13:25;;;;;;;12.38;7.78;;;14.30;88.80;;;;;;5069349;28;20055;-70
2021/09/06 07:15:51;;;;;;;10.35;8.02;;;14.40;88.70;;;;;;5061324;28;20082;-70
2021/09/06 07:18:16;;;;;;;13.43;8.52;;;14.50;88.80;;;;;;5042338;28;20035;-70
2021/09/06 07:20:42;;;;;;;9.80;7.28;;;14.60;88.70;;;;;;5070385;28;20498;-70
2021/09/06 07:23:08;;;;;;;9.73;7.45;;;14.80;88.60;;;;;;5064347;28;20481;-70
2021/09/06 07:25:34;;;;;;;9.93;7.55;;;15.00;88.20;;;;;;5066590;28;20104;-70
2021/09/06 07:27:59;;;;;;;10.05;7.57;;;15.40;87.70;;;;;;5066516;28;20021;-70
2021/09/06 07:30:25;;;;;;;8.77;6.05;;;15.90;87.00;;;;;;5064080;28;20115;-70
2021/09/06 07:32:51;;;;;;;7.43;5.72;;;16.70;85.60;;;;;;5038764;28;20039;-70
2021/09/06 07:35:17;;;;;;;6.55;5.53;;;17.50;84.10;;;;;;5050130;28;20022;-70
2021/09/06 07:37:43;;;;;;;7.80;5.78;;;18.30;82.80;;;;;;5034671;28;20036;-71
2021/09/06 07:40:10;;;;;;;10.07;5.95;;;18.80;81.30;;;;;;5071849;28;20100;-71
2021/09/06 07:42:38;;;;;;;7.32;5.82;;;19.10;80.40;;;;;;5071112;28;20027;-71
2021/09/06 07:45:05;;;;;;;8.00;5.85;;;19.20;80.30;;;;;;5068788;28;20029;-70
2021/09/06 07:47:30;;;;;;;7.50;5.63;;;19.50;79.70;;;;;;5066022;28;20029;-70
2021/09/06 07:49:57;;;;;;;6.93;5.25;;;20.20;78.40;;;;;;5050994;28;20492;-70
2021/09/06 07:52:24;;;;;;;6.15;5.38;;;21.00;76.90;;;;;;5050897;28;20032;-71
2021/09/06 07:54:49;;;;;;;7.55;5.25;;;21.60;75.00;;;;;;5049722;28;20068;-70
2021/09/06 07:57:15;;;;;;;5.60;4.30;;;22.10;73.80;;;;;;5050285;28;20481;-71
2021/09/06 07:59:41;;;;;;;10.63;5.32;;;22.50;73.00;;;;;;5051830;28;20133;-71
2021/09/06 08:02:06;;;;;;;8.13;5.05;;;23.00;72.40;;;;;;5058073;28;20082;-70
2021/09/06 08:04:32;;;;;;;5.30;4.55;;;23.70;71.20;;;;;;5070110;28;20024;-71
2021/09/06 08:06:58;;;;;;;6.88;4.72;;;24.20;69.80;;;;;;5037733;28;20025;-71
2021/09/06 08:09:23;;;;;;;6.60;4.63;;;24.80;68.40;;;;;;5065356;28;20063;-71
2021/09/06 08:11:50;;;;;;;5.25;4.70;;;25.10;66.80;;;;;;5051372;28;20036;-71
2021/09/06 08:14:17;;;;;;;6.75;4.80;;;25.30;66.20;;;;;;5036686;28;20688;-71
2021/09/06 08:16:43;;;;;;;6.97;5.50;;;25.40;65.30;;;;;;5067846;28;20029;-70
2021/09/06 08:19:09;;;;;;;6.90;4.93;;;25.60;65.20;;;;;;5055399;28;20029;-70
2021/09/06 08:21:34;;;;;;;8.55;4.95;;;26.00;64.60;;;;;;5054609;28;20029;-71
2021/09/06 08:24:00;;;;;;;10.88;5.20;;;26.30;63.20;;;;;;5053746;28;20070;-71
2021/09/06 08:26:27;;;;;;;7.05;5.20;;;26.40;62.80;;;;;;5060875;28;20032;-71
2021/09/06 08:28:53;;;;;;;11.02;5.70;;;26.50;62.60;;;;;;5067339;28;20016;-71
2021/09/06 08:31:19;;;;;;;12.63;9.65;;;26.60;62.50;;;;;;5073018;28;20035;-71
2021/09/06 08:33:45;;;;;;;5.82;4.45;;;26.70;62.40;;;;;;5057130;28;20085;-71
2021/09/06 08:36:11;;;;;;;7.80;4.90;;;26.70;61.90;;;;;;5061393;28;20527;-71
2021/09/06 08:38:38;;;;;;;8.00;4.35;;;26.60;62.10;;;;;;5073452;28;20021;-71
2021/09/06 08:41:07;;;;;;;6.22;4.53;;;26.50;62.20;;;;;;5072900;28;20020;-71
2021/09/06 08:43:33;;;;;;;8.38;4.10;;;26.40;62.80;;;;;;5073415;28;20082;-71
2021/09/06 08:45:59;;;;;;;6.18;4.32;;;26.40;63.30;;;;;;5057715;28;20021;-71
2021/09/06 08:48:26;;;;;;;6.20;3.97;;;26.40;62.80;;;;;;5064235;28;20034;-71
2021/09/06 08:50:51;;;;;;;5.68;4.07;;;26.50;63.10;;;;;;5053826;28;20040;-71
2021/09/06 08:53:17;;;;;;;7.18;4.18;;;26.50;63.20;;;;;;5054442;28;20029;-71
2021/09/06 08:55:43;;;;;;;12.93;4.35;;;26.60;62.90;;;;;;5072732;28;20028;-71
2021/09/06 08:58:08;;;;;;;5.00;4.28;;;26.60;62.50;;;;;;5073190;28;20028;-71
2021/09/06 09:00:34;;;;;;;8.20;5.63;;;26.60;61.90;;;;;;5054483;28;20453;-71
2021/09/06 09:03:00;;;;;;;7.68;4.72;;;26.70;61.90;;;;;;5051797;28;20559;-71
2021/09/06 09:05:26;;;;;;;7.55;4.38;;;26.80;62.20;;;;;;5071097;28;20021;-72
2021/09/06 09:07:57;;;;;;;5.18;4.18;;;26.80;61.40;;;;;;5073854;28;20173;-70
2021/09/06 09:10:38;;;;;;;4.70;4.00;;;26.50;61.20;;;;;;5066634;28;20028;-70
2021/09/06 09:13:09;;;;;;;6.85;3.75;;;26.30;62.00;;;;;;5073116;28;20550;-71
2021/09/06 09:15:37;;;;;;;6.50;4.73;;;26.10;62.70;;;;;;5066575;28;20488;-72
2021/09/06 09:18:06;;;;;;;5.22;3.90;;;26.00;62.90;;;;;;5067158;28;20476;-72
2021/09/06 09:20:40;;;;;;;5.25;4.43;;;25.90;62.90;;;;;;5057279;28;20029;-71
2021/09/06 09:23:06;;;;;;;7.80;4.15;;;25.70;63.50;;;;;;5073309;28;20016;-69
2021/09/06 09:25:33;;;;;;;7.38;4.88;;;25.60;64.40;;;;;;5070152;28;20040;-71
2021/09/06 09:27:59;;;;;;;6.88;4.38;;;25.50;64.50;;;;;;5064614;28;20103;-71
2021/09/06 09:30:28;;;;;;;6.93;4.75;;;25.30;64.10;;;;;;5076645;28;20551;-71
2021/09/06 09:33:08;;;;;;;4.82;4.18;;;25.10;64.30;;;;;;5035145;28;20029;-70
2021/09/06 09:35:34;;;;;;;6.32;4.30;;;24.90;64.70;;;;;;5070027;28;20026;-71
2021/09/06 09:38:02;;;;;;;4.93;4.00;;;24.80;66.80;;;;;;5072395;28;20025;-70
2021/09/06 09:40:39;;;;;;;4.35;3.90;;;24.90;67.90;;;;;;5071994;28;20016;-71
2021/09/06 09:43:05;;;;;;;6.55;4.32;;;25.00;67.00;;;;;;5073059;28;20040;-71
2021/09/06 09:45:32;;;;;;;6.97;4.57;;;25.10;67.90;;;;;;5055940;28;20466;-71
2021/09/06 09:47:59;;;;;;;5.60;4.00;;;25.20;67.20;;;;;;5034613;28;20447;-72
2021/09/06 09:50:27;;;;;;;6.00;4.20;;;25.20;67.00;;;;;;5052821;28;20389;-71
2021/09/06 09:52:55;;;;;;;7.38;4.43;;;25.30;67.30;;;;;;5034709;28;20047;-72
2021/09/06 09:55:22;;;;;;;6.93;4.60;;;25.40;66.50;;;;;;5052623;28;20040;-71
2021/09/06 09:57:48;;;;;;;5.78;4.40;;;25.30;67.00;;;;;;5052456;28;20021;-71
2021/09/06 10:00:15;;;;;;;5.18;4.38;;;25.40;68.00;;;;;;5034527;28;20111;-72
2021/09/06 10:02:49;;;;;;;5.97;4.03;;;25.40;66.10;;;;;;5052652;28;20025;-73
2021/09/06 10:05:15;;;;;;;7.18;4.45;;;25.20;65.60;;;;;;5066536;28;20029;-69
2021/09/06 10:07:46;;;;;;;6.22;4.40;;;25.20;66.80;;;;;;5035576;28;20028;-71
2021/09/06 10:10:19;;;;;;;7.13;4.25;;;25.30;67.50;;;;;;5045797;28;20107;-71
2021/09/06 10:12:46;;;;;;;4.80;4.00;;;25.50;66.80;;;;;;5059036;28;20033;-71
2021/09/06 10:15:12;;;;;;;7.05;4.32;;;25.60;67.40;;;;;;5050624;28;20021;-71
2021/09/06 10:17:40;;;;;;;9.10;4.50;;;25.70;66.30;;;;;;5034172;28;20052;-71
2021/09/06 10:20:10;;;;;;;8.45;4.47;;;25.80;65.40;;;;;;5052458;28;20025;-71
2021/09/06 10:22:35;;;;;;;6.43;4.03;;;25.90;63.90;;;;;;5051900;28;20045;-71
2021/09/06 10:25:04;;;;;;;4.50;4.03;;;26.10;63.80;;;;;;5050552;28;20523;-71
2021/09/06 10:27:32;;;;;;;5.72;4.05;;;26.10;63.70;;;;;;5061819;28;20024;-71
2021/09/06 10:30:03;;;;;;;5.47;4.05;;;26.30;62.80;;;;;;5070819;28;20496;-71
2021/09/06 10:32:46;;;;;;;8.20;4.85;;;26.50;60.90;;;;;;5071704;28;20514;-71
2021/09/06 10:35:19;;;;;;;4.63;3.88;;;26.60;61.30;;;;;;5070245;28;20028;-71
2021/09/06 10:37:47;;;;;;;6.38;4.22;;;26.80;60.00;;;;;;5071327;28;20021;-71
2021/09/06 10:40:25;;;;;;;6.40;4.57;;;26.90;59.50;;;;;;5071304;28;20040;-71
2021/09/06 10:42:51;;;;;;;8.95;4.00;;;27.00;58.50;;;;;;5071687;28;20044;-71
2021/09/06 10:45:17;;;;;;;6.15;4.38;;;27.00;58.70;;;;;;5059574;28;20477;-71
2021/09/06 10:47:43;;;;;;;6.30;4.22;;;27.10;59.20;;;;;;5051261;28;20388;-71
2021/09/06 10:50:18;;;;;;;7.75;4.10;;;27.00;59.10;;;;;;5033304;28;20040;-71
2021/09/06 10:52:49;;;;;;;6.97;4.43;;;27.10;58.90;;;;;;5033192;28;20385;-71
2021/09/06 10:55:16;;;;;;;7.67;4.10;;;27.10;58.40;;;;;;5032482;28;20032;-72
2021/09/06 10:57:43;;;;;;;6.38;4.38;;;27.10;59.80;;;;;;5058052;28;20051;-69
2021/09/06 11:00:15;;;;;;;5.20;4.22;;;27.10;60.30;;;;;;5059934;28;20098;-71
2021/09/06 11:02:42;;;;;;;;;;;27.20;60.10;;;;;;5071563;28;20024;-72
2021/09/06 11:05:15;;;;;;;6.30;4.43;;;27.20;61.20;;;;;;5038966;28;20007;-72
2021/09/06 11:07:41;;;;;;;7.15;4.00;;;27.20;59.60;;;;;;5061416;28;20029;-72
2021/09/06 11:10:11;;;;;;;6.93;4.47;;;27.20;58.80;;;;;;5063201;28;20047;-70
2021/09/06 11:12:39;;;;;;;4.28;3.83;;;27.10;58.70;;;;;;5069213;28;20032;-72
2021/09/06 11:15:06;;;;;;;7.15;4.22;;;27.10;58.40;;;;;;5061094;28;20025;-71
2021/09/06 11:17:31;;;;;;;6.25;4.45;;;27.20;58.70;;;;;;5056612;28;20497;-71
2021/09/06 11:19:58;;;;;;;5.65;4.65;;;27.20;58.30;;;;;;5063041;28;20021;-72
2021/09/06 11:22:27;;;;;;;6.28;4.15;;;27.30;57.60;;;;;;5060741;28;20078;-71
2021/09/06 11:24:58;;;;;;;5.88;4.55;;;27.30;56.70;;;;;;5070176;28;20039;-70
2021/09/06 11:27:29;;;;;;;6.55;4.47;;;27.20;56.90;;;;;;5062463;28;20040;-72
2021/09/06 11:29:55;;;;;;;6.93;4.43;;;27.00;56.90;;;;;;5067309;28;20028;-72
2021/09/06 11:32:21;;;;;;;6.15;3.83;;;27.00;57.00;;;;;;5066249;28;20102;-71
2021/09/06 11:34:49;;;;;;;4.63;3.90;;;27.00;57.20;;;;;;5050109;28;20477;-72
2021/09/06 11:37:16;;;;;;;6.18;4.18;;;27.00;57.00;;;;;;5041696;28;20021;-72
2021/09/06 11:39:43;;;;;;;4.78;4.28;;;26.90;56.70;;;;;;5050212;28;20522;-71
2021/09/06 11:42:10;;;;;;;5.50;4.40;;;26.80;56.30;;;;;;5038235;28;20029;-72
2021/09/06 11:44:36;;;;;;;5.53;4.43;;;26.70;56.60;;;;;;5068439;28;20025;-69
2021/09/06 11:47:02;;;;;;;5.28;4.03;;;26.80;56.70;;;;;;5068935;28;20020;-71
2021/09/06 11:49:28;;;;;;;6.07;3.88;;;26.90;57.80;;;;;;5068675;28;20393;-70
2021/09/06 11:51:53;;;;;;;5.97;4.25;;;27.00;57.20;;;;;;5052401;28;20033;-71
2021/09/06 11:54:21;;;;;;;7.50;4.80;;;27.10;56.90;;;;;;5033750;28;20025;-71
2021/09/06 11:56:57;;;;;;;17.50;5.70;;;27.10;56.80;;;;;;5039206;28;20464;-71
2021/09/06 11:59:27;;;;;;;5.32;4.20;;;27.10;57.60;;;;;;5063375;28;20020;-71
2021/09/06 12:01:53;;;;;;;15.27;5.43;;;27.10;56.40;;;;;;5057183;28;20506;-71
2021/09/06 12:04:19;;;;;;;9.55;4.90;;;27.00;56.60;;;;;;5033813;28;20020;-71
2021/09/06 12:06:44;;;;;;;9.63;4.28;;;26.90;57.80;;;;;;5058674;28;20025;-70
2021/09/06 12:09:12;;;;;;;5.85;4.40;;;26.80;58.10;;;;;;5069685;28;20366;-68
2021/09/06 12:11:39;;;;;;;5.80;4.43;;;26.70;58.30;;;;;;5069614;28;20028;-71
2021/09/06 12:14:07;;;;;;;6.88;4.57;;;26.70;57.60;;;;;;5069004;28;20039;-71
2021/09/06 12:16:34;;;;;;;5.90;4.90;;;26.80;58.30;;;;;;5069376;28;20104;-71
2021/09/06 12:19:15;;;;;;;5.28;4.43;;;27.00;57.70;;;;;;5066659;28;20445;-71
2021/09/06 12:21:43;;;;;;;5.57;4.53;;;27.10;56.90;;;;;;5054434;28;20023;-71
2021/09/06 12:24:09;;;;;;;5.40;4.35;;;27.10;56.40;;;;;;5132101;22;20044;-68
2021/09/06 12:26:38;;;;;;;5.68;4.47;;;27.00;56.00;;;;;;5065968;28;20036;-66
2021/09/06 12:29:04;;;;;;;7.10;4.32;;;27.00;55.40;;;;;;5069774;28;20020;-66
2021/09/06 12:31:43;;;;;;;5.07;4.25;;;26.70;55.40;;;;;;5069183;28;20396;-66
2021/09/06 12:34:13;;;;;;;5.97;4.78;;;26.50;55.90;;;;;;5057656;28;20067;-68
2021/09/06 12:36:40;;;;;;;6.40;4.25;;;26.40;56.40;;;;;;5066177;28;20089;-66
2021/09/06 12:39:05;;;;;;;7.75;4.38;;;26.50;56.40;;;;;;5069347;28;20503;-66
2021/09/06 12:41:31;;;;;;;4.50;3.92;;;26.60;55.90;;;;;;5065699;28;20032;-67
2021/09/06 12:43:57;;;;;;;8.23;4.43;;;26.70;56.50;;;;;;5050701;28;20028;-67